Time;durP1;ratioP1;P1;durP2;ratioP2;P2;SDS_P1;SDS_P2;PMS_P1;PMS_P2;Temp;Humidity;BMP_temperature;BMP_pressure;BME280_temperature;BME280_humidity;BME280_pressure;Samples;Min_cycle;Max_cycle;Signal;HPM_P1;HPM_P2
2023/08/09 00:01:35;;;;;;;4.40;2.78;;;;;;;13.43;100.00;101243.94;4917670;29;20442;-80
2023/08/09 00:04:01;;;;;;;4.85;2.58;;;;;;;13.36;100.00;101233.13;4916353;29;20052;-81
2023/08/09 00:06:26;;;;;;;4.07;2.60;;;;;;;13.41;100.00;101225.88;4917502;29;20035;-81
2023/08/09 00:08:52;;;;;;;5.03;3.00;;;;;;;13.38;100.00;101225.25;4918114;29;20032;-81
2023/08/09 00:11:17;;;;;;;3.97;2.65;;;;;;;13.49;100.00;101241.75;4917737;29;20066;-82
2023/08/09 00:13:42;;;;;;;3.60;2.58;;;;;;;13.10;100.00;101171.81;4917582;29;20066;-82
2023/08/09 00:16:09;;;;;;;5.00;2.75;;;;;;;13.51;100.00;101238.22;4917623;29;20055;-82
2023/08/09 00:18:35;;;;;;;5.20;2.90;;;;;;;13.52;100.00;101245.88;4917711;29;20111;-82
2023/08/09 00:21:00;;;;;;;4.25;2.88;;;;;;;13.53;100.00;101247.56;4916089;29;20123;-82
2023/08/09 00:23:26;;;;;;;3.72;2.70;;;;;;;13.46;100.00;101241.94;4917379;29;20042;-83
2023/08/09 00:25:51;;;;;;;3.75;2.65;;;;;;;13.21;100.00;101203.06;4917564;29;20024;-82
2023/08/09 00:28:19;;;;;;;3.70;2.50;;;;;;;13.26;100.00;101216.53;4917421;29;20489;-82
2023/08/09 00:30:44;;;;;;;4.93;2.90;;;;;;;13.35;100.00;101226.28;4917291;29;20911;-82
2023/08/09 00:33:10;;;;;;;4.22;2.40;;;;;;;13.49;100.00;101254.72;4916166;29;20040;-82
2023/08/09 00:38:39;;;;;;;5.43;2.88;;;;;;;12.15;100.00;101035.69;4917417;29;20502;-82
2023/08/09 00:41:31;;;;;;;7.90;3.78;;;;;;;13.44;100.00;101242.97;4917421;29;20056;-82
2023/08/09 00:43:56;;;;;;;;;;;;;;;13.47;100.00;101246.22;4917476;29;20040;-83
2023/08/09 00:46:22;;;;;;;5.45;3.45;;;;;;;13.36;100.00;101232.28;4917502;29;20034;-83
2023/08/09 00:48:47;;;;;;;5.40;3.58;;;;;;;13.43;100.00;101247.34;4917169;29;20111;-83
2023/08/09 00:51:13;;;;;;;6.03;3.55;;;;;;;12.96;100.00;101164.97;4916889;29;20107;-83
2023/08/09 00:53:38;;;;;;;6.90;3.88;;;;;;;13.25;100.00;101222.66;4900095;29;20084;-84
2023/08/09 00:56:04;;;;;;;6.38;3.72;;;;;;;13.49;100.00;101257.31;4916363;29;20096;-84
2023/08/09 00:58:29;;;;;;;6.32;4.00;;;;;;;13.25;100.00;101227.00;4917084;29;20055;-83
2023/08/09 01:00:55;;;;;;;5.20;3.63;;;;;;;13.25;100.00;101224.41;4917288;29;20035;-83
2023/08/09 01:03:20;;;;;;;6.38;4.00;;;;;;;12.87;100.00;101173.34;4923492;29;20023;-83
2023/08/09 01:06:13;;;;;;;6.25;4.28;;;;;;;13.13;100.00;101202.72;4935654;29;20032;-84
2023/08/09 01:08:52;;;;;;;7.43;4.22;;;;;;;13.52;100.00;101269.25;4918833;29;20019;-84
2023/08/09 01:11:26;;;;;;;6.35;4.35;;;;;;;13.51;100.00;101267.59;4935583;29;20035;-84
2023/08/09 01:13:53;;;;;;;6.95;4.10;;;;;;;13.48;100.00;101268.63;4935863;29;20024;-84
2023/08/09 01:16:21;;;;;;;5.30;3.90;;;;;;;13.46;100.00;101269.66;4935639;29;20024;-83
2023/08/09 01:18:48;;;;;;;6.50;4.57;;;;;;;13.36;100.00;101247.84;4935533;29;20031;-84
2023/08/09 01:21:17;;;;;;;6.65;4.25;;;;;;;13.05;100.00;101197.22;4935281;29;20523;-83
2023/08/09 01:23:44;;;;;;;7.28;4.78;;;;;;;13.41;100.00;101266.56;4935537;29;20039;-83
2023/08/09 01:26:10;;;;;;;6.88;4.20;;;;;;;13.09;100.00;101219.44;4935305;29;20056;-84
2023/08/09 01:28:36;;;;;;;5.63;4.10;;;;;;;13.29;100.00;101267.38;4934243;29;20038;-83
2023/08/09 01:31:03;;;;;;;6.57;4.47;;;;;;;13.17;100.00;101268.97;4934290;29;20396;-84
2023/08/09 01:33:29;;;;;;;5.50;3.90;;;;;;;12.80;100.00;101229.97;4935438;29;20034;-84
2023/08/09 01:36:28;;;;;;;5.03;3.88;;;;;;;12.71;100.00;101225.38;4935425;29;20059;-84
2023/08/09 01:39:00;;;;;;;6.78;4.15;;;;;;;12.70;100.00;101247.03;4858134;29;20040;-84
2023/08/09 01:41:26;;;;;;;5.90;4.38;;;;;;;12.59;100.00;101244.31;4858417;29;20436;-84
2023/08/09 01:43:52;;;;;;;7.93;4.22;;;;;;;12.75;100.00;101283.00;4857898;29;20049;-84
2023/08/09 01:46:18;;;;;;;6.13;3.90;;;;;;;12.14;100.00;101196.28;4858062;29;20062;-82
2023/08/09 01:48:43;;;;;;;4.90;3.75;;;;;;;12.41;100.00;101254.09;4857428;29;20033;-83
2023/08/09 01:51:09;;;;;;;5.32;4.20;;;;;;;12.45;100.00;101272.84;4858228;29;20115;-82
2023/08/09 01:53:35;;;;;;;8.90;4.10;;;;;;;12.49;100.00;101289.88;4857898;29;20030;-83
2023/08/09 01:56:00;;;;;;;6.95;4.20;;;;;;;12.24;100.00;101262.09;4857580;29;20037;-82
2023/08/09 01:58:25;;;;;;;5.93;4.07;;;;;;;12.40;100.00;101287.88;4858185;29;20523;-83
2023/08/09 02:00:52;;;;;;;4.95;3.80;;;;;;;11.96;100.00;101226.75;4858057;29;20029;-83
2023/08/09 02:03:17;;;;;;;6.18;3.78;;;;;;;12.02;100.00;101253.09;4857901;29;20456;-82
2023/08/09 02:05:43;;;;;;;6.45;4.38;;;;;;;12.21;100.00;101293.38;4858107;29;20030;-83
2023/08/09 02:08:08;;;;;;;6.13;4.05;;;;;;;12.16;100.00;101290.22;4857901;29;20039;-83
2023/08/09 02:10:33;;;;;;;5.93;4.25;;;;;;;12.16;100.00;101292.81;4858008;29;20041;-83
2023/08/09 02:12:59;;;;;;;5.35;4.35;;;;;;;11.99;100.00;101273.13;4857837;29;20440;-84
2023/08/09 02:15:24;;;;;;;5.57;4.13;;;;;;;12.07;100.00;101296.81;4887210;29;20067;-83
2023/08/09 02:17:50;;;;;;;17.52;4.10;;;;;;;11.90;100.00;101289.25;4933290;29;20043;-83
2023/08/09 02:20:16;;;;;;;5.53;3.97;;;;;;;11.78;100.00;101275.25;4917545;29;20039;-83
2023/08/09 02:22:43;;;;;;;5.90;3.63;;;;;;;11.88;100.00;101296.25;4917612;29;20118;-83
2023/08/09 02:25:09;;;;;;;7.32;3.70;;;;;;;11.86;100.00;101306.72;4934757;29;20044;-83
2023/08/09 02:27:35;;;;;;;6.80;3.22;;;;;;;11.64;100.00;101275.28;4933165;29;20070;-83
2023/08/09 02:30:03;;;;;;;9.63;3.30;;;;;;;11.75;100.00;101312.50;4934768;29;20064;-83
2023/08/09 02:32:32;;;;;;;6.15;3.10;;;;;;;11.70;100.00;101309.38;4934909;29;20034;-83
2023/08/09 02:34:58;;;;;;;15.43;3.20;;;;;;;11.66;100.00;101312.22;4934661;29;20036;-83
2023/08/09 02:37:24;;;;;;;7.43;3.08;;;;;;;11.57;100.00;101313.59;4934826;29;20046;-83
2023/08/09 02:39:49;;;;;;;8.55;2.95;;;;;;;11.15;100.00;101253.16;4934774;29;20409;-83
2023/08/09 02:42:16;;;;;;;5.80;2.80;;;;;;;11.45;100.00;101311.75;4934838;29;20102;-83
2023/08/09 02:44:41;;;;;;;3.67;2.97;;;;;;;11.51;100.00;101320.91;4934724;29;20541;-83
2023/08/09 02:47:08;;;;;;;5.57;3.05;;;;;;;11.44;100.00;101326.44;4934713;29;20127;-83
2023/08/09 02:49:33;;;;;;;3.83;2.88;;;;;;;11.36;100.00;101312.28;4934479;29;20374;-83
2023/08/09 02:51:59;;;;;;;6.13;3.40;;;;;;;11.41;100.00;101330.97;4933170;29;20048;-84
2023/08/09 02:54:24;;;;;;;4.90;3.40;;;;;;;11.15;100.00;101298.84;4934435;29;20545;-83
2023/08/09 02:56:49;;;;;;;7.50;3.15;;;;;;;11.34;100.00;101329.66;4934696;29;20075;-84
2023/08/09 02:59:15;;;;;;;6.05;3.63;;;;;;;11.31;100.00;101332.41;4934682;29;20035;-83
2023/08/09 03:01:44;;;;;;;5.32;3.92;;;;;;;11.24;100.00;101334.50;4920531;29;20094;-84
2023/08/09 03:04:10;;;;;;;7.50;3.92;;;;;;;11.08;100.00;101310.47;4937642;29;20095;-83
2023/08/09 03:06:36;;;;;;;7.35;4.20;;;;;;;11.05;100.00;101310.63;4938119;29;20044;-83
2023/08/09 03:09:03;;;;;;;9.45;5.00;;;;;;;11.15;100.00;101322.94;4937740;29;20087;-85
2023/08/09 03:11:28;;;;;;;11.82;4.78;;;;;;;11.13;100.00;101324.78;4937825;29;20079;-84
2023/08/09 03:13:54;;;;;;;8.30;4.80;;;;;;;11.23;100.00;101342.38;4920829;29;20470;-84
2023/08/09 03:16:20;;;;;;;7.88;5.35;;;;;;;11.30;100.00;101343.66;4937693;29;20057;-84
2023/08/09 03:18:46;;;;;;;8.18;5.43;;;;;;;11.39;100.00;101341.38;4937530;29;20086;-83
2023/08/09 03:21:12;;;;;;;8.73;5.85;;;;;;;11.40;100.00;101339.63;4937807;29;20032;-83
2023/08/09 03:23:37;;;;;;;9.57;5.82;;;;;;;11.40;100.00;101326.69;4937706;29;20063;-84
2023/08/09 03:26:03;;;;;;;13.25;6.07;;;;;;;11.12;100.00;101289.53;4937710;29;20100;-84
2023/08/09 03:28:28;;;;;;;9.43;5.80;;;;;;;10.32;100.00;101166.69;4937604;29;20123;-83
2023/08/09 03:30:54;;;;;;;7.30;5.45;;;;;;;11.39;100.00;101354.31;4937430;29;20043;-83
2023/08/09 03:33:19;;;;;;;7.68;5.80;;;;;;;11.33;100.00;101362.44;4937564;29;20032;-84
2023/08/09 03:35:44;;;;;;;7.32;5.22;;;;;;;11.31;100.00;101358.28;4937311;29;20027;-83
2023/08/09 03:38:10;;;;;;;7.50;5.38;;;;;;;11.10;100.00;101335.28;4937506;29;20036;-83
2023/08/09 03:40:35;;;;;;;6.47;4.90;;;;;;;11.14;100.00;101333.38;4919987;29;20023;-84
2023/08/09 03:43:01;;;;;;;7.00;5.10;;;;;;;11.25;100.00;101376.72;4937364;29;20114;-83
2023/08/09 03:45:26;;;;;;;6.63;5.05;;;;;;;11.00;100.00;101336.72;4937316;29;20039;-83
2023/08/09 03:47:52;;;;;;;6.63;5.13;;;;;;;11.09;100.00;101362.06;4937307;29;20020;-83
2023/08/09 03:50:18;;;;;;;7.65;5.30;;;;;;;11.03;100.00;101359.84;4937067;29;20222;-83
2023/08/09 03:52:43;;;;;;;8.82;6.05;;;;;;;11.01;100.00;101366.84;4937017;29;20036;-84
2023/08/09 03:55:09;;;;;;;7.20;5.40;;;;;;;10.96;100.00;101352.50;4936716;29;20052;-84
2023/08/09 03:57:34;;;;;;;6.40;4.60;;;;;;;11.12;100.00;101379.16;4936983;29;20039;-84
2023/08/09 04:00:00;;;;;;;5.80;4.85;;;;;;;11.03;100.00;101380.50;4936753;29;20016;-84
2023/08/09 04:02:26;;;;;;;7.15;5.10;;;;;;;11.12;100.00;101398.09;4935302;29;20480;-83
2023/08/09 04:04:51;;;;;;;7.28;5.22;;;;;;;10.94;100.00;101368.09;4936923;29;20024;-83
2023/08/09 04:07:17;;;;;;;6.47;5.00;;;;;;;10.93;100.00;101369.03;4937007;29;20095;-84
2023/08/09 04:09:42;;;;;;;7.57;5.40;;;;;;;11.04;100.00;101402.03;4936474;29;20028;-83
2023/08/09 04:12:08;;;;;;;7.50;6.10;;;;;;;11.08;100.00;101396.56;4936203;29;20024;-84
2023/08/09 04:14:33;;;;;;;8.98;6.15;;;;;;;11.08;100.00;101390.56;4919740;29;20032;-84
2023/08/09 04:16:59;;;;;;;8.60;6.50;;;;;;;10.77;100.00;101347.53;4936647;29;20512;-84
2023/08/09 04:19:29;;;;;;;7.85;5.97;;;;;;;10.75;100.00;101342.47;4936700;29;20474;-83
2023/08/09 04:21:54;;;;;;;8.75;6.22;;;;;;;11.11;100.00;101405.91;5080717;23;20063;-84
2023/08/09 04:24:20;;;;;;;8.90;6.75;;;;;;;10.95;100.00;101364.59;4917682;29;20517;-84
2023/08/09 04:26:46;;;;;;;9.50;6.88;;;;;;;11.03;100.00;101369.34;4917666;29;20024;-83
2023/08/09 04:29:11;;;;;;;9.23;7.22;;;;;;;11.09;100.00;101372.41;4917360;29;20036;-84
2023/08/09 04:31:40;;;;;;;9.25;7.25;;;;;;;11.15;100.00;101397.91;4917613;29;20032;-83
2023/08/09 04:34:05;;;;;;;8.60;7.25;;;;;;;11.27;100.00;101411.06;4900916;29;20035;-84
2023/08/09 04:36:31;;;;;;;9.43;7.68;;;;;;;10.93;100.00;101352.69;4917418;29;20028;-84
2023/08/09 04:38:57;;;;;;;9.27;7.15;;;;;;;11.08;100.00;101373.31;4917311;29;20472;-84
2023/08/09 04:41:22;;;;;;;9.15;7.15;;;;;;;11.36;100.00;101415.72;4917019;29;20035;-83
2023/08/09 04:43:48;;;;;;;7.80;6.95;;;;;;;10.94;100.00;101339.69;5064330;23;20015;-83
2023/08/09 04:46:25;;;;;;;8.68;7.00;;;;;;;10.29;100.00;101220.22;4916116;29;20043;-83
2023/08/09 04:48:50;;;;;;;8.25;6.95;;;;;;;10.33;100.00;101221.72;4917085;29;20186;-83
2023/08/09 04:51:19;;;;;;;8.10;6.72;;;;;;;11.35;100.00;101386.44;4916955;29;20048;-83
2023/08/09 04:53:47;;;;;;;7.93;6.93;;;;;;;11.50;100.00;101397.63;4916991;29;20394;-83
2023/08/09 04:56:15;;;;;;;10.07;7.85;;;;;;;11.84;100.00;101421.59;4899837;29;20121;-83
2023/08/09 05:02:05;;;;;;;9.13;8.15;;;;;;;10.79;100.00;101194.09;5074347;23;20060;-83
2023/08/09 05:04:31;;;;;;;11.65;8.30;;;;;;;12.30;100.00;101428.28;4916931;29;20032;-83
2023/08/09 05:06:56;;;;;;;11.23;8.63;;;;;;;12.49;100.00;101430.59;4916918;29;20031;-83
2023/08/09 05:09:22;;;;;;;9.52;8.18;;;;;;;12.45;100.00;101400.63;4916706;29;20047;-83
2023/08/09 05:11:47;;;;;;;10.88;8.48;;;;;;;12.81;100.00;101431.19;4916680;29;20038;-83
2023/08/09 05:14:12;;;;;;;10.15;8.35;;;;;;;12.96;100.00;101442.34;4916530;29;20059;-82
2023/08/09 05:16:38;;;;;;;10.75;7.70;;;;;;;13.16;100.00;101443.66;4916629;29;20024;-82
2023/08/09 05:19:03;;;;;;;11.07;8.75;;;;;;;13.17;100.00;101385.69;4899748;29;20032;-83
2023/08/09 05:21:31;;;;;;;10.98;8.25;;;;;;;14.21;100.00;101444.50;4916847;29;20067;-81
2023/08/09 05:23:59;;;;;;;11.68;9.32;;;;;;;13.61;100.00;101249.63;4969460;23;20522;-83
2023/08/09 05:26:28;;;;;;;9.77;8.07;;;;;;;14.42;100.00;101307.06;4916440;29;20036;-80
2023/08/09 05:28:53;;;;;;;10.57;8.48;;;;;;;15.91;100.00;101459.19;4916542;29;20024;-83
2023/08/09 05:31:19;;;;;;;10.80;8.70;;;;;;;15.10;100.00;101290.84;4916488;29;20039;-82
2023/08/09 05:33:44;;;;;;;10.15;8.15;;;;;;;16.16;100.00;101465.16;4916705;29;20032;-83
2023/08/09 05:38:58;;;;;;;13.65;10.18;;;;;;;14.75;100.00;101284.81;4876791;29;20074;-82
2023/08/09 05:41:23;;;;;;;13.65;10.38;;;;;;;15.84;100.00;101437.16;4876675;29;20069;-82
2023/08/09 05:43:49;;;;;;;12.93;10.15;;;;;;;16.16;100.00;101471.19;4876352;29;20061;-84
2023/08/09 05:46:14;;;;;;;13.65;11.00;;;;;;;16.72;100.00;101473.00;4876899;29;20037;-83
2023/08/09 05:48:40;;;;;;;13.00;10.70;;;;;;;17.16;100.00;101451.19;4876924;29;20158;-81
2023/08/09 05:51:05;;;;;;;12.95;11.55;;;;;;;17.64;100.00;101466.41;4860930;29;20045;-82
2023/08/09 05:53:31;;;;;;;13.60;11.60;;;;;;;17.31;100.00;101460.41;4876958;29;20157;-82
2023/08/09 05:55:56;;;;;;;14.75;11.40;;;;;;;17.22;100.00;101475.97;4876682;29;20052;-81
2023/08/09 05:58:21;;;;;;;15.15;12.23;;;;;;;16.91;100.00;101479.25;4876641;29;20033;-82
2023/08/09 06:00:57;;;;;;;14.57;11.77;;;;;;;16.54;100.00;101463.03;4977767;23;20143;-82
2023/08/09 06:03:22;;;;;;;15.35;12.75;;;;;;;16.29;100.00;101476.28;4916183;29;20031;-82
2023/08/09 06:05:47;;;;;;;15.60;13.55;;;;;;;14.88;100.00;101293.38;4915923;29;20118;-82
2023/08/09 06:08:16;;;;;;;15.82;13.52;;;;;;;14.78;100.00;101288.03;4916152;29;20084;-82
2023/08/09 06:10:41;;;;;;;15.18;13.32;;;;;;;15.11;100.00;101365.31;4915890;29;20028;-82
2023/08/09 06:13:07;;;;;;;16.73;14.20;;;;;;;15.56;100.00;101420.13;4915935;29;20497;-83
2023/08/09 06:15:32;;;;;;;17.25;14.30;;;;;;;16.15;100.00;101494.75;4899142;29;20111;-82
2023/08/09 06:17:57;;;;;;;16.95;14.02;;;;;;;16.14;100.00;101493.94;4914911;29;20025;-83
2023/08/09 06:20:23;;;;;;;16.40;14.52;;;;;;;16.11;100.00;101472.47;4916094;29;20024;-82
2023/08/09 06:22:48;;;;;;;17.13;14.93;;;;;;;16.52;100.00;101511.84;4898960;29;20067;-82
2023/08/09 06:25:23;;;;;;;18.35;15.10;;;;;;;16.92;100.00;101522.66;4915908;29;20096;-81
2023/08/09 06:27:48;;;;;;;19.30;15.30;;;;;;;17.26;100.00;101487.81;4914723;29;20432;-81
2023/08/09 06:30:16;;;;;;;17.80;15.90;;;;;;;18.42;100.00;101526.06;4915318;29;20040;-80
2023/08/09 06:32:45;;;;;;;18.85;15.75;;;;;;;18.75;95.69;101506.66;4916610;29;20040;-81
2023/08/09 06:35:10;;;;;;;18.30;15.05;;;;;;;18.55;95.45;101525.84;4918607;29;20474;-80
2023/08/09 06:37:36;;;;;;;18.35;15.10;;;;;;;17.92;99.09;101519.84;4919558;29;20028;-83
2023/08/09 06:40:06;;;;;;;17.92;14.85;;;;;;;17.89;100.00;101531.38;4919156;29;20032;-83
2023/08/09 06:42:31;;;;;;;17.70;15.57;;;;;;;18.11;99.33;101533.06;4919085;29;20032;-83
2023/08/09 06:44:57;;;;;;;18.20;15.27;;;;;;;17.99;100.00;101527.06;4919597;29;20036;-82
2023/08/09 06:47:22;;;;;;;19.05;15.68;;;;;;;17.87;99.30;101535.91;4919406;29;20393;-85
2023/08/09 06:49:48;;;;;;;19.67;16.35;;;;;;;17.70;100.00;101526.03;4919362;29;20366;-82
2023/08/09 06:52:14;;;;;;;18.38;15.68;;;;;;;17.46;100.00;101529.63;4919421;29;20032;-81
2023/08/09 06:54:39;;;;;;;17.05;14.55;;;;;;;17.20;100.00;101525.66;4918036;29;20044;-83
2023/08/09 06:57:04;;;;;;;18.80;15.40;;;;;;;17.52;100.00;101536.16;4919043;29;20151;-83
2023/08/09 06:59:30;;;;;;;19.73;14.93;;;;;;;17.87;100.00;101543.72;4919047;29;20585;-80
2023/08/09 07:01:55;;;;;;;18.77;14.35;;;;;;;17.95;100.00;101543.13;4918837;29;20119;-83
2023/08/09 07:04:20;;;;;;;16.73;13.82;;;;;;;18.00;99.84;101541.78;4919086;29;20044;-82
2023/08/09 07:06:46;;;;;;;17.30;14.30;;;;;;;18.32;99.20;101557.38;4919144;29;20032;-80
2023/08/09 07:09:12;;;;;;;16.27;13.23;;;;;;;18.13;97.39;101546.81;4919018;29;20068;-83
2023/08/09 07:11:37;;;;;;;17.50;13.93;;;;;;;18.00;100.00;101551.41;4901795;29;20040;-82
2023/08/09 07:14:03;;;;;;;17.63;13.52;;;;;;;17.40;100.00;101495.34;4918710;29;20378;-82
2023/08/09 07:16:28;;;;;;;15.85;12.88;;;;;;;17.56;100.00;101526.28;4917600;29;20167;-81
2023/08/09 07:18:54;;;;;;;16.70;13.45;;;;;;;17.97;100.00;101547.25;4918765;29;20031;-83
2023/08/09 07:21:20;;;;;;;16.42;13.20;;;;;;;18.37;99.13;101564.84;4918964;29;20024;-82
2023/08/09 07:23:46;;;;;;;16.85;13.15;;;;;;;18.31;99.23;101562.75;4918659;29;20032;-82
2023/08/09 07:26:11;;;;;;;17.85;14.13;;;;;;;18.28;100.00;101558.59;4918670;29;20032;-82
2023/08/09 07:28:36;;;;;;;18.35;13.27;;;;;;;18.18;100.00;101549.84;4918465;29;20051;-82
2023/08/09 07:31:02;;;;;;;17.13;13.68;;;;;;;18.52;98.87;101563.56;4918387;29;20035;-82
2023/08/09 07:33:27;;;;;;;17.15;13.18;;;;;;;18.66;98.73;101546.69;4918865;29;20031;-83
2023/08/09 07:35:54;;;;;;;13.85;10.77;;;;;;;19.13;96.93;101571.38;4898731;29;20083;-84
2023/08/09 07:38:22;;;;;;;12.65;9.90;;;;;;;19.27;95.18;101553.63;4912613;29;20016;-81
2023/08/09 07:40:48;;;;;;;13.13;9.73;;;;;;;19.44;94.92;101559.03;4929451;29;20027;-85
2023/08/09 07:43:13;;;;;;;12.57;8.73;;;;;;;19.62;93.66;101563.63;4937382;29;20120;-83
2023/08/09 07:45:41;;;;;;;13.45;10.57;;;;;;;19.32;93.78;101518.22;4936160;29;20119;-82
2023/08/09 07:48:06;;;;;;;12.38;8.70;;;;;;;19.57;92.01;101556.19;4937104;29;20020;-84
2023/08/09 07:50:32;;;;;;;11.68;8.90;;;;;;;19.53;93.16;101554.78;4936985;29;20034;-81
2023/08/09 07:52:57;;;;;;;12.90;9.40;;;;;;;19.47;94.20;101565.81;4937318;29;20056;-84
2023/08/09 07:55:25;;;;;;;11.73;9.55;;;;;;;19.36;93.50;101563.28;4937077;29;20056;-82
2023/08/09 07:57:50;;;;;;;11.23;8.68;;;;;;;19.47;93.71;101584.16;4919534;29;20036;-82
2023/08/09 08:00:17;;;;;;;9.27;6.32;;;;;;;19.48;94.15;101567.47;4936829;29;20355;-84
2023/08/09 08:02:44;;;;;;;9.80;7.05;;;;;;;19.48;94.04;101591.88;4936617;29;20044;-85
2023/08/09 08:05:11;;;;;;;10.40;6.38;;;;;;;19.40;93.80;101589.09;4935667;29;20031;-83
2023/08/09 08:07:37;;;;;;;10.73;7.82;;;;;;;19.07;95.50;101561.44;4936711;29;20529;-82
2023/08/09 08:10:03;;;;;;;13.00;9.30;;;;;;;19.14;96.10;101591.38;4936867;29;20027;-82
2023/08/09 08:12:28;;;;;;;10.25;7.28;;;;;;;19.20;95.48;101585.59;4937191;29;20477;-82
2023/08/09 08:14:54;;;;;;;10.98;7.95;;;;;;;19.38;95.60;101593.66;4936664;29;20039;-82
2023/08/09 08:17:19;;;;;;;10.93;7.93;;;;;;;19.44;94.73;101547.72;4936671;29;20032;-85
2023/08/09 08:19:47;;;;;;;12.10;8.25;;;;;;;19.62;92.35;101581.97;4937090;29;20120;-82
2023/08/09 08:22:13;;;;;;;9.10;6.68;;;;;;;19.60;94.64;101599.63;4936677;29;20039;-83
2023/08/09 08:24:39;;;;;;;10.20;8.13;;;;;;;19.52;93.97;101609.94;4936604;29;20023;-83
2023/08/09 08:27:04;;;;;;;10.25;8.35;;;;;;;19.38;95.88;101603.28;4935422;29;20023;-82
2023/08/09 08:29:30;;;;;;;11.57;8.32;;;;;;;19.50;96.57;101591.72;4936532;29;20422;-81
2023/08/09 08:31:55;;;;;;;11.07;7.15;;;;;;;19.81;94.75;101610.81;4936432;29;20385;-83
2023/08/09 08:34:21;;;;;;;10.45;8.05;;;;;;;19.73;95.20;101611.50;4934891;29;20084;-82
2023/08/09 08:36:48;;;;;;;10.48;8.00;;;;;;;19.68;96.63;101603.22;4919543;29;20367;-81
2023/08/09 08:39:14;;;;;;;11.38;8.52;;;;;;;19.58;95.59;101585.84;4934618;29;20123;-80
2023/08/09 08:41:42;;;;;;;12.75;8.50;;;;;;;19.56;95.57;101601.69;4936287;29;20122;-82
2023/08/09 08:44:11;;;;;;;9.63;6.78;;;;;;;19.54;95.82;101621.91;4935994;29;20032;-81
2023/08/09 08:46:37;;;;;;;9.00;6.00;;;;;;;19.31;97.36;101586.44;4936141;29;20047;-85
2023/08/09 08:49:04;;;;;;;8.70;6.85;;;;;;;18.83;96.66;101534.78;4936210;29;20023;-86
2023/08/09 08:51:31;;;;;;;10.18;7.38;;;;;;;19.33;98.17;101629.88;4936140;29;20533;-85
2023/08/09 08:53:57;;;;;;;10.30;7.07;;;;;;;19.16;97.71;101593.84;4935996;29;20481;-85
2023/08/09 08:56:22;;;;;;;11.00;6.75;;;;;;;19.29;97.34;101596.25;4936469;29;20043;-84
2023/08/09 08:58:48;;;;;;;9.77;7.75;;;;;;;19.67;95.42;101625.16;4935848;29;20031;-86
2023/08/09 09:01:15;;;;;;;9.48;7.20;;;;;;;19.35;93.36;101559.84;4935818;29;20067;-86
2023/08/09 09:03:52;;;;;;;11.40;8.15;;;;;;;19.93;93.53;101642.97;4936152;29;20028;-84
2023/08/09 09:06:34;;;;;;;10.25;7.57;;;;;;;20.19;93.04;101645.88;4935747;29;20031;-85
2023/08/09 09:09:17;;;;;;;10.55;8.90;;;;;;;20.24;93.11;101627.91;4935925;29;20019;-84
2023/08/09 09:11:54;;;;;;;11.75;8.15;;;;;;;20.06;90.07;101617.31;4979283;23;20566;-83
2023/08/09 09:14:32;;;;;;;11.23;9.93;;;;;;;19.68;91.03;101566.53;4916697;29;20028;-84
2023/08/09 09:17:08;;;;;;;12.57;10.65;;;;;;;18.89;89.55;101443.50;4915573;29;20031;-83
2023/08/09 09:22:29;;;;;;;11.73;10.07;;;;;;;19.99;88.03;101610.97;4941211;23;20131;-79
2023/08/09 09:27:47;;;;;;;9.20;8.18;;;;;;;20.06;85.71;101530.78;5010214;23;20048;-81
2023/08/09 09:36:51;;;;;;;11.90;10.70;;;;;;;20.98;85.21;101656.06;5738399;23;20063;-83
2023/08/09 09:39:55;;;;;;;11.95;10.43;;;;;;;21.16;84.16;101649.09;4914346;29;20044;-87
2023/08/09 09:42:38;;;;;;;11.77;10.23;;;;;;;20.65;83.66;101583.91;4916412;29;20040;-84
2023/08/09 09:45:07;;;;;;;13.98;11.57;;;;;;;20.74;83.46;101630.31;4920853;29;20015;-86
2023/08/09 09:47:39;;;;;;;11.85;10.13;;;;;;;20.87;82.53;101657.09;4935418;29;20063;-81
2023/08/09 09:50:07;;;;;;;13.90;11.27;;;;;;;20.72;79.55;101642.75;4918532;29;20032;-83
2023/08/09 09:52:34;;;;;;;14.75;12.88;;;;;;;20.92;82.82;101637.28;4935695;29;20385;-84
2023/08/09 09:55:01;;;;;;;12.48;11.13;;;;;;;21.20;79.88;101651.28;4935477;29;20035;-82
2023/08/09 09:57:27;;;;;;;12.15;10.45;;;;;;;21.27;77.94;101627.91;4935229;29;20023;-83
2023/08/09 09:59:58;;;;;;;15.55;11.45;;;;;;;21.50;77.26;101653.78;4935079;29;20087;-81
2023/08/09 10:02:24;;;;;;;;;;;;;;;21.75;79.63;101634.66;4935617;29;20028;-83
2023/08/09 10:04:50;;;;;;;16.83;12.68;;;;;;;21.68;77.74;101628.34;4935348;29;19915;-83
2023/08/09 10:07:16;;;;;;;11.88;9.80;;;;;;;21.87;76.80;101640.53;4935396;29;20500;-83
2023/08/09 10:09:42;;;;;;;13.27;10.90;;;;;;;21.82;74.23;101637.50;4937213;29;20028;-83
2023/08/09 10:12:10;;;;;;;11.93;10.35;;;;;;;21.75;75.79;101637.28;4939184;29;20031;-83
2023/08/09 10:14:36;;;;;;;12.18;9.70;;;;;;;21.68;74.59;101641.50;4938715;29;20027;-82
2023/08/09 10:17:02;;;;;;;12.23;10.00;;;;;;;21.82;77.17;101638.31;4939111;29;20042;-82
2023/08/09 10:19:29;;;;;;;13.05;11.35;;;;;;;22.10;77.08;101627.75;4938754;29;20038;-83
2023/08/09 10:21:55;;;;;;;12.20;9.73;;;;;;;22.27;74.54;101630.38;4939076;29;20034;-83
2023/08/09 10:24:20;;;;;;;13.80;9.40;;;;;;;22.16;71.64;101608.75;4938797;29;20032;-84
2023/08/09 10:26:49;;;;;;;11.82;9.25;;;;;;;22.31;74.26;101641.41;4938843;29;20393;-82
2023/08/09 10:29:20;;;;;;;11.43;10.23;;;;;;;22.23;74.76;101646.63;4938780;29;20024;-81
2023/08/09 10:32:04;;;;;;;10.63;8.30;;;;;;;22.12;74.26;101618.72;4938407;29;20035;-82
2023/08/09 10:34:37;;;;;;;12.40;10.25;;;;;;;22.12;74.74;101652.91;4938847;29;20036;-81
2023/08/09 10:37:04;;;;;;;11.27;8.82;;;;;;;21.85;73.42;101640.66;4921646;29;20540;-79
2023/08/09 10:39:31;;;;;;;10.73;9.30;;;;;;;21.81;73.17;101643.75;4938421;29;20051;-80
2023/08/09 10:42:06;;;;;;;10.82;8.43;;;;;;;21.89;73.51;101659.59;4938494;29;20035;-83
2023/08/09 10:44:38;;;;;;;9.32;8.32;;;;;;;21.86;72.84;101660.72;4937224;29;20042;-82
2023/08/09 10:47:10;;;;;;;8.45;7.25;;;;;;;21.73;71.20;101665.53;4938368;29;20019;-83
2023/08/09 10:49:45;;;;;;;8.95;6.95;;;;;;;21.64;72.43;101627.81;4935664;29;20516;-82
2023/08/09 10:52:11;;;;;;;9.60;7.47;;;;;;;21.91;72.83;101653.19;4919663;29;20029;-82
2023/08/09 10:54:38;;;;;;;8.90;7.15;;;;;;;21.82;72.04;101626.97;4919831;29;20502;-81
2023/08/09 10:57:10;;;;;;;8.95;7.07;;;;;;;21.76;71.41;101633.69;4919323;29;20032;-78
2023/08/09 10:59:43;;;;;;;14.45;7.43;;;;;;;21.94;71.79;101657.34;4919553;29;20118;-79
2023/08/09 11:02:08;;;;;;;19.13;6.30;;;;;;;22.07;72.34;101638.59;4918901;29;20028;-81
2023/08/09 11:04:34;;;;;;;5.95;4.45;;;;;;;21.94;67.62;101642.41;4919147;29;20032;-80
2023/08/09 11:07:00;;;;;;;14.88;5.50;;;;;;;21.94;69.21;101652.94;4919054;29;20051;-76
2023/08/09 11:09:32;;;;;;;7.22;5.10;;;;;;;21.73;67.89;101645.34;4919247;29;20107;-78
2023/08/09 11:11:58;;;;;;;6.63;5.60;;;;;;;21.48;69.52;101625.84;4919268;29;20082;-75
2023/08/09 11:14:24;;;;;;;6.93;5.43;;;;;;;21.38;70.25;101632.13;4918971;29;20107;-83
2023/08/09 11:16:50;;;;;;;7.20;5.47;;;;;;;21.35;71.07;101633.25;4901726;29;20092;-82
2023/08/09 11:19:18;;;;;;;6.38;5.35;;;;;;;21.41;72.23;101637.91;4918886;29;20032;-82
2023/08/09 11:22:02;;;;;;;7.78;4.90;;;;;;;21.87;73.11;101653.66;4917701;29;20028;-83
2023/08/09 11:24:29;;;;;;;6.50;4.10;;;;;;;22.18;67.49;101662.03;4918754;29;20064;-86
2023/08/09 11:26:57;;;;;;;5.45;3.97;;;;;;;22.68;68.91;101664.03;4918851;29;20107;-90
2023/08/09 11:29:25;;;;;;;5.53;3.78;;;;;;;22.89;63.78;101654.78;4918589;29;20080;-85
2023/08/09 11:31:53;;;;;;;6.55;3.63;;;;;;;23.12;66.62;101656.91;4918446;29;20466;-81
2023/08/09 11:34:22;;;;;;;5.47;3.47;;;;;;;23.14;64.02;101657.56;4918635;29;20052;-83
2023/08/09 11:36:50;;;;;;;6.18;3.55;;;;;;;22.86;62.49;101641.13;4901353;29;20474;-85